x

Buoy E01 - Central Maine Shelf (44032) Wave Buoy

7:04pm - Wed 22nd Nov 2017 All times are EST. -5 hours from GMT.

  • Sig Wave height 4.6ft
  • Peak Period 4s
  • Wind
    29mph, 36mph gusts
  • Sea Temp 50°f
  • Air Temp 43°f
  • Sea Pressure 1006mb
  • Buoy E01 - Central Maine Shelf
  • Buoy E01 - Central Maine Shelf

More Historic Weather Station data

Upgrade to MSW Pro to gain access to the past 30 days of data for over 8000 Wavebouys and Weather Stations around the globe.

Join

Comparision Forecast

View Surf forecast
   
Wed 11/22 7:04pm 4.5ft 4s 29 36 mph 1006mb 50f 43f
6:04pm 3.5ft 3s 27 31 mph 1006mb 50f 45f
5:04pm 3.5ft 6s 9 11 mph 1006mb 50f 50f
4:04pm 3.5ft 6s 13 16 mph 1006mb 50f 49f
3:04pm 3.5ft 6s 11 13 mph 1007mb 50f 49f
2:04pm 3.5ft 6s 9 11 mph 1008.1mb 50f 50f
1:04pm 3.5ft 6s 9 11 mph 1009.5mb 50f 50f
12:04pm 4ft 6s 9 9 mph 1010.3mb 50f 50f
11:04am 4.5ft 6s 13 18 mph 1011.7mb 50f 51f
9:04am 4.5ft 6s 7 11 mph 1013.9mb 50f 51f
8:04am 4.5ft 8s 7 9 mph 1014.1mb 50f 51f
7:04am 4.5ft 6s 9 9 mph 1014.3mb 50f 51f
6:04am 5ft 6s 9 11 mph 1014.7mb 50f 51f
5:04am 5ft 6s 11 13 mph 1014.8mb 51f 51f
4:04am 6ft 6s 16 18 mph 1014.5mb 51f 51f
3:04am 6ft 6s 16 20 mph 1014.4mb 51f 51f
Tue 11/21 11:04pm 7ft 8s 22 29 mph 1014.4mb 51f 51f
10:04pm 9.5ft 6s 22 27 mph 1014.5mb 51f 51f
9:04pm 8.5ft 8s 25 31 mph 1014.6mb 51f 51f
8:04pm 8ft 8s 25 29 mph 1014.5mb 51f 52f
7:04pm 8.5ft 8s 29 34 mph 1014.2mb 51f 52f
6:04pm 8.5ft 6s 29 36 mph 1013.5mb 51f 52f
5:04pm 7.5ft 6s 29 36 mph 1013.1mb 51f 52f
4:04pm 7ft 6s 25 29 mph 1013.6mb 51f 52f
3:04pm 7ft 6s 27 34 mph 1013.6mb 51f 52f
2:04pm 7ft 6s 22 27 mph 1013.8mb 51f 51f
1:04pm 6ft 5s 27 31 mph 1014.7mb 51f 50f
12:04pm 5ft 5s 25 29 mph 1015.2mb 51f 48f
11:04am 4.5ft 5s 22 29 mph 1016.2mb 51f 47f
10:04am 4.5ft 5s 20 22 mph 1017.2mb 51f 47f
9:04am 4.5ft 5s 18 20 mph 1017.8mb 51f 47f
8:04am 4.5ft 5s 2 4 mph 1018.3mb 51f 45f
7:04am 4ft 6s 4 7 mph 1018.2mb 51f 41f
6:04am 4ft 11s 4 7 mph 1018.1mb 51f 38f
5:04am 4ft 11s 2 2 mph 1018.2mb 51f 35f
4:04am 4ft 6s 2 4 mph 1017.8mb 51f 34f
3:04am 3.5ft 6s 4 7 mph 1017.9mb 51f 33f
2:04am 4ft 6s 7 9 mph 1017.8mb 51f 31f
1:04am 4ft 6s 9 13 mph 1017.1mb 51f 32f
12:04am 4ft 6s 13 18 mph 1016.6mb 51f 31f
Mon 11/20 11:04pm 4.5ft 6s 11 16 mph 1015.7mb 51f 31f
10:04pm 6ft 6s 18 25 mph 1014.6mb 51f 33f
9:04pm 6ft 6s 22 27 mph 1013.6mb 51f 35f
8:04pm 5ft 5s 18 22 mph 1013mb 51f 35f
7:04pm 5ft 5s 20 25 mph 1011.9mb 51f 37f
6:04pm 5ft 6s 22 31 mph 1011mb 51f 38f
5:04pm 6ft 11s 16 22 mph 1010.4mb 51f 37f
4:04pm 4.5ft 6s 16 22 mph 1009.6mb 51f 37f
3:04pm 5ft 6s 16 20 mph 1008.6mb 51f 37f
2:04pm 5ft 6s 16 20 mph 1007.9mb 51f 36f
1:04pm 5ft 5s 27 36 mph 1007.4mb 51f 37f
12:04pm 5ft 5s 22 27 mph 1006.9mb 51f 37f
11:04am 5ft 5s 22 31 mph 1006.5mb 51f 37f
10:04am 4.5ft 5s 22 27 mph 1006.8mb 51f 37f
9:04am 6ft 11s 22 27 mph 1006.6mb 51f 36f
8:04am 5ft 5s 18 25 mph 1006.3mb 51f 36f
7:04am 7.5ft 11s 20 25 mph 1005.8mb 51f 36f
6:04am 7ft 11s 25 31 mph 1004.3mb 51f 37f
5:04am 8ft 11s 22 29 mph 1003.3mb 51f 38f
4:04am 7ft 11s 25 29 mph 1002.2mb 51f 38f
3:04am 5ft 5s 20 25 mph 1001.3mb 51f 38f
2:04am  -   -  18 25 mph 1000.8mb 51f 37f
1:04am 6.5ft 11s 20 27 mph 1000.3mb 51f 37f
12:04am 7ft 6s 20 29 mph 999.1mb 51f 37f
Sun 11/19 11:04pm 8ft 11s 25 29 mph 999.3mb 51f 38f
10:04pm 6.5ft 8s 25 29 mph 998.3mb 51f 38f
9:04pm 8ft 6s 29 34 mph 997.2mb 51f 38f
8:04pm 8ft 8s 27 34 mph 995.8mb 51f 39f
7:04pm 8ft 8s 25 31 mph 994.2mb 51f 40f
6:04pm 9.5ft 8s 27 34 mph 992.2mb 51f 41f
5:04pm 9ft 8s 29 34 mph 990.2mb 51f 44f
4:04pm 9ft 8s 29 36 mph 987.6mb 51f 46f
3:04pm 8ft 8s 29 36 mph 984.1mb 51f 51f
2:04pm 9ft 8s 22 29 mph 982.7mb 51f 53f
1:04pm 8.5ft 8s 20 22 mph 982.7mb 51f 53f
12:04pm 8ft 8s 25 31 mph 983.1mb 51f 54f
11:04am 8.5ft 8s 27 31 mph 984.4mb 51f 54f
10:04am 7.5ft 8s 25 29 mph 985.6mb 51f 54f
9:04am 7ft 6s 27 34 mph 986.6mb 51f 54f
8:04am 7ft 6s 27 34 mph 987.8mb 51f 54f
7:04am 5.5ft 6s 25 31 mph 988.5mb 51f 54f
6:04am 6ft 5s 25 29 mph 989.9mb 51f 54f
5:04am 5ft 6s 22 27 mph 991.3mb 51f 53f
4:04am 4.5ft 5s 18 20 mph 993mb 51f 52f
3:04am 4.5ft 5s 13 16 mph 994.7mb 51f 51f
2:04am 4.5ft 5s 25 29 mph 996.1mb 51f 52f